createdAt,value
2018-04-01T00:00:28.180Z,77.93
2018-04-01T00:02:55.027Z,77.82
2018-04-01T00:05:21.875Z,77.73
2018-04-01T00:07:48.733Z,77.96
2018-04-01T00:10:15.584Z,78.39
2018-04-01T00:12:42.459Z,78.55
2018-04-01T00:15:09.309Z,78.56
2018-04-01T00:17:36.163Z,77.99
2018-04-01T00:20:03.015Z,77.34
2018-04-01T00:22:29.874Z,77.26
2018-04-01T00:24:56.718Z,77.28
2018-04-01T00:27:23.606Z,77.00
2018-04-01T00:29:50.566Z,77.03
2018-04-01T00:32:17.423Z,77.57
2018-04-01T00:34:44.284Z,77.34
2018-04-01T00:37:11.142Z,76.81
2018-04-01T00:39:37.987Z,76.70
2018-04-01T00:42:04.863Z,76.91
2018-04-01T00:44:31.714Z,76.92
2018-04-01T00:46:58.630Z,77.25
2018-04-01T00:49:25.502Z,77.63
2018-04-01T00:51:52.335Z,78.51
2018-04-01T00:54:19.191Z,79.13
2018-04-01T00:56:46.043Z,79.41
2018-04-01T00:59:12.915Z,79.32
2018-04-01T01:01:39.771Z,79.75
2018-04-01T01:04:06.626Z,79.64
2018-04-01T01:06:33.479Z,79.72
2018-04-01T01:09:00.331Z,79.95
2018-04-01T01:11:27.186Z,79.99
2018-04-01T01:13:54.038Z,80.84
2018-04-01T01:16:20.895Z,80.82
2018-04-01T01:18:47.858Z,80.81
2018-04-01T01:21:14.702Z,81.50
2018-04-01T01:23:41.568Z,81.12
2018-04-01T01:26:08.487Z,81.17
2018-04-01T01:28:35.440Z,81.57
2018-04-01T01:31:02.285Z,81.85
2018-04-01T01:33:29.218Z,81.71
2018-04-01T01:35:56.071Z,81.53
2018-04-01T01:38:22.943Z,80.86
2018-04-01T01:40:49.823Z,80.26
2018-04-01T01:43:16.680Z,79.85
2018-04-01T01:45:43.534Z,79.78
2018-04-01T01:48:10.401Z,79.96
2018-04-01T01:50:37.238Z,80.20
2018-04-01T01:53:04.107Z,80.19
2018-04-01T01:55:30.959Z,80.11
2018-04-01T01:57:57.833Z,80.00
2018-04-01T02:00:24.680Z,81.31
2018-04-01T02:02:51.537Z,80.89
2018-04-01T02:05:18.383Z,81.03
2018-04-01T02:07:45.235Z,80.89
2018-04-01T02:10:12.078Z,80.64
2018-04-01T02:12:38.990Z,80.77
2018-04-01T02:15:05.840Z,81.28
2018-04-01T02:17:32.696Z,81.78
2018-04-01T02:19:59.618Z,81.63
2018-04-01T02:22:26.468Z,81.28
2018-04-01T02:24:53.319Z,80.78
2018-04-01T02:27:20.171Z,81.13
2018-04-01T02:29:47.058Z,81.27
2018-04-01T02:32:13.911Z,81.34
2018-04-01T02:34:40.791Z,82.10
2018-04-01T02:37:07.635Z,81.72
2018-04-01T02:39:34.483Z,80.93
2018-04-01T02:42:01.332Z,80.67
2018-04-01T02:44:28.836Z,80.90
2018-04-01T02:46:55.683Z,81.18
2018-04-01T02:49:22.546Z,81.28
2018-04-01T02:51:49.403Z,80.80
2018-04-01T02:54:16.248Z,80.72
2018-04-01T02:56:43.102Z,80.77
2018-04-01T02:59:10.015Z,80.16
2018-04-01T03:01:36.873Z,79.79
2018-04-01T03:04:03.723Z,79.96
2018-04-01T03:06:30.581Z,80.78
2018-04-01T03:08:57.431Z,80.65
2018-04-01T03:11:24.279Z,80.62
2018-04-01T03:13:51.143Z,80.51
2018-04-01T03:16:18.025Z,80.43
2018-04-01T03:18:44.883Z,80.93
2018-04-01T03:21:11.743Z,80.55
2018-04-01T03:23:38.602Z,81.22
2018-04-01T03:26:05.462Z,80.97
2018-04-01T03:28:32.542Z,80.76
2018-04-01T03:30:59.473Z,80.84
2018-04-01T03:33:26.328Z,80.89
2018-04-01T03:35:53.175Z,80.64
2018-04-01T03:38:20.027Z,80.60
2018-04-01T03:40:46.933Z,80.79
2018-04-01T03:43:13.801Z,80.52
2018-04-01T03:45:40.662Z,80.93
2018-04-01T03:48:07.523Z,80.56
2018-04-01T03:50:34.370Z,80.24
2018-04-01T03:53:01.235Z,80.09
2018-04-01T03:55:28.078Z,79.93
2018-04-01T03:57:54.990Z,80.25
2018-04-01T04:00:21.881Z,80.03
2018-04-01T04:02:48.699Z,80.04
2018-04-01T04:05:15.566Z,80.02
2018-04-01T04:07:42.418Z,79.71
2018-04-01T04:10:09.279Z,79.61
2018-04-01T04:12:36.132Z,80.21
2018-04-01T04:15:03.400Z,80.53
2018-04-01T04:17:30.301Z,80.92
2018-04-01T04:19:57.111Z,82.17
2018-04-01T04:22:23.958Z,83.23
2018-04-01T04:24:50.887Z,83.45
2018-04-01T04:27:17.743Z,83.75
2018-04-01T04:29:45.503Z,82.57
2018-04-01T04:32:12.357Z,82.77
2018-04-01T04:34:39.219Z,82.81
2018-04-01T04:37:06.108Z,83.07
2018-04-01T04:39:32.962Z,83.28
2018-04-01T04:41:59.816Z,82.86
2018-04-01T04:44:26.702Z,82.22
2018-04-01T04:46:53.571Z,82.19
2018-04-01T04:49:20.434Z,82.06
2018-04-01T04:51:47.283Z,82.38
2018-04-01T04:54:14.144Z,82.10
2018-04-01T04:56:40.995Z,81.43
2018-04-01T04:59:07.850Z,80.90
2018-04-01T05:01:34.726Z,81.13
2018-04-01T05:04:01.588Z,81.81
2018-04-01T05:06:28.435Z,81.76
2018-04-01T05:08:55.283Z,81.69
2018-04-01T05:11:22.134Z,81.26
2018-04-01T05:13:48.982Z,81.53
2018-04-01T05:16:15.879Z,81.29
2018-04-01T05:18:42.743Z,81.07
2018-04-01T05:21:09.588Z,80.36
2018-04-01T05:23:36.446Z,80.12
2018-04-01T05:26:03.295Z,79.49
2018-04-01T05:28:30.182Z,79.26
2018-04-01T05:30:57.135Z,78.99
2018-04-01T05:33:24.070Z,78.79
2018-04-01T05:35:51.039Z,79.10
2018-04-01T05:38:17.889Z,79.08
2018-04-01T05:40:44.753Z,79.21
2018-04-01T05:43:11.599Z,78.92
2018-04-01T05:45:38.459Z,78.49
2018-04-01T05:48:05.302Z,78.70
2018-04-01T05:50:32.231Z,78.25
2018-04-01T05:52:59.100Z,78.06
2018-04-01T05:55:25.963Z,78.37
2018-04-01T05:57:52.813Z,78.52
2018-04-01T06:00:19.698Z,78.76
2018-04-01T06:02:46.549Z,78.84
2018-04-01T06:05:14.353Z,78.63
2018-04-01T06:07:41.211Z,79.09
2018-04-01T06:10:08.058Z,79.26
2018-04-01T06:12:34.943Z,79.56
2018-04-01T06:15:02.058Z,79.07
2018-04-01T06:17:28.986Z,79.31
2018-04-01T06:19:55.930Z,79.05
2018-04-01T06:22:22.775Z,79.02
2018-04-01T06:24:49.635Z,79.81
2018-04-01T06:27:16.486Z,79.71
2018-04-01T06:29:43.402Z,78.79
2018-04-01T06:32:10.269Z,79.22
2018-04-01T06:34:37.113Z,78.81
2018-04-01T06:37:03.964Z,78.61
2018-04-01T06:39:30.818Z,78.45
2018-04-01T06:41:57.743Z,78.42
2018-04-01T06:44:24.599Z,78.49
2018-04-01T06:46:51.476Z,77.89
2018-04-01T06:49:18.330Z,77.86
2018-04-01T06:51:45.242Z,78.43
2018-04-01T06:54:12.095Z,78.30
2018-04-01T06:56:38.942Z,78.41
2018-04-01T06:59:05.795Z,77.90
2018-04-01T07:01:32.648Z,78.48
2018-04-01T07:03:59.498Z,78.93
2018-04-01T07:06:26.347Z,79.11
2018-04-01T07:08:53.206Z,79.08
2018-04-01T07:11:20.055Z,79.08
2018-04-01T07:13:46.894Z,79.93
2018-04-01T07:16:13.756Z,79.29
2018-04-01T07:18:40.599Z,78.83
2018-04-01T07:21:07.558Z,78.36
2018-04-01T07:23:34.407Z,78.71
2018-04-01T07:26:01.259Z,78.97
2018-04-01T07:28:28.102Z,78.89
2018-04-01T07:30:54.959Z,79.20
2018-04-01T07:33:21.869Z,78.21
2018-04-01T07:35:48.723Z,78.40
2018-04-01T07:38:15.571Z,78.88
2018-04-01T07:40:42.444Z,78.36
2018-04-01T07:43:09.295Z,78.30
2018-04-01T07:45:36.179Z,77.81
2018-04-01T07:48:03.035Z,78.55
2018-04-01T07:50:29.885Z,78.53
2018-04-01T07:52:56.738Z,77.05
2018-04-01T07:55:23.599Z,76.36
2018-04-01T07:57:50.449Z,77.01
2018-04-01T08:00:17.333Z,75.43
2018-04-01T08:02:44.183Z,73.99
2018-04-01T08:05:11.041Z,73.12
2018-04-01T08:07:37.887Z,73.56
2018-04-01T08:10:04.819Z,73.16
2018-04-01T08:12:31.663Z,72.98
2018-04-01T08:14:58.544Z,72.89
2018-04-01T08:17:25.362Z,73.09
2018-04-01T08:19:52.244Z,73.73
2018-04-01T08:22:19.095Z,74.13
2018-04-01T08:24:45.983Z,74.24
2018-04-01T08:27:12.831Z,74.90
2018-04-01T08:29:39.719Z,74.71
2018-04-01T08:32:06.634Z,74.61
2018-04-01T08:34:33.511Z,74.11
2018-04-01T08:37:00.422Z,73.79
2018-04-01T08:39:27.281Z,73.99
2018-04-01T08:41:54.214Z,72.35
2018-04-01T08:44:21.155Z,72.87
2018-04-01T08:46:47.998Z,72.57
2018-04-01T08:49:14.854Z,71.78
2018-04-01T08:51:41.783Z,70.59
2018-04-01T08:54:08.727Z,70.78
2018-04-01T08:56:35.647Z,69.11
2018-04-01T08:59:02.515Z,68.23
2018-04-01T09:01:29.459Z,69.51
2018-04-01T09:03:56.400Z,70.15
2018-04-01T09:06:23.367Z,69.64
2018-04-01T09:08:50.201Z,69.36
2018-04-01T09:11:17.050Z,68.89
2018-04-01T09:13:43.970Z,70.10
2018-04-01T09:16:10.844Z,71.50
2018-04-01T09:18:37.683Z,70.71
2018-04-01T09:21:04.538Z,70.43
2018-04-01T09:23:31.455Z,69.86
2018-04-01T09:25:58.382Z,70.12
2018-04-01T09:28:25.242Z,68.99
2018-04-01T09:30:52.196Z,68.39
2018-04-01T09:33:19.028Z,67.72
2018-04-01T09:35:46.827Z,67.62
2018-04-01T09:38:13.674Z,68.15
2018-04-01T09:40:40.519Z,69.08
2018-04-01T09:43:07.378Z,68.50
2018-04-01T09:45:34.340Z,68.32
2018-04-01T09:48:01.163Z,68.68
2018-04-01T09:50:28.014Z,68.18
2018-04-01T09:52:54.859Z,68.15
2018-04-01T09:55:21.714Z,66.94
2018-04-01T09:57:48.546Z,65.72
2018-04-01T10:00:21.106Z,67.02
2018-04-01T10:02:48.498Z,67.78
2018-04-01T10:05:16.808Z,67.58
2018-04-01T10:07:44.183Z,66.94
2018-04-01T10:10:11.620Z,67.14
2018-04-01T10:12:39.026Z,66.73
2018-04-01T10:15:06.445Z,67.09
2018-04-01T10:17:33.838Z,68.10
2018-04-01T10:20:01.248Z,67.82
2018-04-01T10:22:28.698Z,67.62
2018-04-01T10:24:56.074Z,67.99
2018-04-01T10:27:23.454Z,67.84
2018-04-01T10:29:50.835Z,67.52
2018-04-01T10:32:18.325Z,65.67
2018-04-01T10:34:45.702Z,65.82
2018-04-01T10:37:13.082Z,66.27
2018-04-01T10:39:40.482Z,65.36
2018-04-01T10:42:07.870Z,64.79
2018-04-01T10:44:35.251Z,65.81
2018-04-01T10:47:02.648Z,63.60
2018-04-01T10:49:30.029Z,62.98
2018-04-01T10:51:57.410Z,62.72
2018-04-01T10:54:24.250Z,63.17
2018-04-01T10:59:22.096Z,64.11
2018-04-01T11:01:48.938Z,63.87
2018-04-01T11:04:15.780Z,62.55
2018-04-01T11:06:42.623Z,63.94
2018-04-01T11:09:09.530Z,63.43
2018-04-01T11:11:36.366Z,63.20
2018-04-01T11:14:03.239Z,61.86
2018-04-01T11:16:30.080Z,63.21
2018-04-01T11:18:57.022Z,63.77
2018-04-01T11:21:23.865Z,63.75
2018-04-01T11:23:50.722Z,64.44
2018-04-01T11:26:17.566Z,64.71
2018-04-01T11:28:44.495Z,63.88
2018-04-01T11:31:11.351Z,64.26
2018-04-01T11:33:38.195Z,64.72
2018-04-01T11:36:05.045Z,64.65
2018-04-01T11:38:31.893Z,64.11
2018-04-01T11:40:58.734Z,63.07
2018-04-01T11:43:25.582Z,62.72
2018-04-01T11:45:52.486Z,62.96
2018-04-01T11:48:19.335Z,62.86
2018-04-01T11:50:46.186Z,64.33
2018-04-01T11:53:13.123Z,64.06
2018-04-01T11:55:39.977Z,64.09
2018-04-01T11:58:06.819Z,64.13
2018-04-01T12:00:33.671Z,63.85
2018-04-01T12:03:00.608Z,62.38
2018-04-01T12:05:27.536Z,61.52
2018-04-01T12:07:54.374Z,61.24
2018-04-01T12:10:21.324Z,61.11
2018-04-01T12:12:48.266Z,61.63
2018-04-01T12:15:15.122Z,61.72
2018-04-01T12:17:42.015Z,61.47
2018-04-01T12:20:08.886Z,62.00
2018-04-01T12:22:35.711Z,61.61
2018-04-01T12:25:02.652Z,62.09
2018-04-01T12:27:29.590Z,62.07
2018-04-01T12:29:56.443Z,63.10
2018-04-01T12:32:23.290Z,62.99
2018-04-01T12:34:50.154Z,62.28
2018-04-01T12:37:17.006Z,60.83
2018-04-01T12:39:43.850Z,61.25
2018-04-01T12:42:10.691Z,61.13
2018-04-01T12:44:37.563Z,60.72
2018-04-01T12:47:04.422Z,61.04
2018-04-01T12:49:31.362Z,60.74
2018-04-01T12:51:58.225Z,60.21
2018-04-01T12:54:25.159Z,61.09
2018-04-01T12:56:52.018Z,61.95
2018-04-01T12:59:18.872Z,62.29
2018-04-01T13:01:45.761Z,61.96
2018-04-01T13:04:12.570Z,61.54
2018-04-01T13:06:39.423Z,61.20
2018-04-01T13:09:06.279Z,62.17
2018-04-01T13:11:33.139Z,62.63
2018-04-01T13:13:59.991Z,63.31
2018-04-01T13:16:26.934Z,62.82
2018-04-01T13:18:53.787Z,62.58
2018-04-01T13:21:20.733Z,62.58
2018-04-01T13:23:47.579Z,62.87
2018-04-01T13:26:14.517Z,62.79
2018-04-01T13:28:41.460Z,63.64
2018-04-01T13:31:08.315Z,64.11
2018-04-01T13:33:35.170Z,62.79
2018-04-01T13:36:02.026Z,63.28
2018-04-01T13:38:28.883Z,63.36
2018-04-01T13:40:55.769Z,63.62
2018-04-01T13:43:22.627Z,62.75
2018-04-01T13:45:49.550Z,62.92
2018-04-01T13:48:16.519Z,61.86
2018-04-01T13:50:43.447Z,62.13
2018-04-01T13:53:10.286Z,61.30
2018-04-01T13:55:37.145Z,61.24
2018-04-01T13:58:03.999Z,61.47
2018-04-01T14:00:30.845Z,61.49
2018-04-01T14:02:57.704Z,60.59
2018-04-01T14:05:24.628Z,60.37
2018-04-01T14:07:51.582Z,60.73
2018-04-01T14:10:18.438Z,60.54
2018-04-01T14:12:45.394Z,60.60
2018-04-01T14:15:12.237Z,60.79
2018-04-01T14:17:39.103Z,61.01
2018-04-01T14:20:05.957Z,59.51
2018-04-01T14:22:32.866Z,59.03
2018-04-01T14:24:59.728Z,59.16
2018-04-01T14:27:26.583Z,58.63
2018-04-01T14:29:53.430Z,58.61
2018-04-01T14:32:20.330Z,59.70
2018-04-01T14:34:47.177Z,58.77
2018-04-01T14:37:14.031Z,59.08
2018-04-01T14:39:40.883Z,59.78
2018-04-01T14:42:07.814Z,58.78
2018-04-01T14:44:34.743Z,57.94
2018-04-01T14:47:01.695Z,58.24
2018-04-01T14:49:28.631Z,57.95
2018-04-01T14:51:55.628Z,57.98
2018-04-01T14:54:22.524Z,57.99
2018-04-01T14:56:49.471Z,57.10
2018-04-01T14:59:16.320Z,58.31
2018-04-01T15:01:43.183Z,59.14
2018-04-01T15:04:10.060Z,58.80
2018-04-01T15:06:36.940Z,59.22
2018-04-01T15:09:03.784Z,58.65
2018-04-01T15:11:30.674Z,58.94
2018-04-01T15:13:57.567Z,59.16
2018-04-01T15:16:24.425Z,57.64
2018-04-01T15:18:51.358Z,57.28
2018-04-01T15:21:18.303Z,56.79
2018-04-01T15:23:45.243Z,55.99
2018-04-01T15:26:12.107Z,55.74
2018-04-01T15:28:38.944Z,55.74
2018-04-01T15:31:05.795Z,55.58
2018-04-01T15:33:32.639Z,53.53
2018-04-01T15:35:59.564Z,54.02
2018-04-01T15:38:26.412Z,55.15
2018-04-01T15:40:53.340Z,55.83
2018-04-01T15:43:20.192Z,53.44
2018-04-01T15:45:47.127Z,53.80
2018-04-01T15:48:13.992Z,52.13
2018-04-01T15:50:40.898Z,52.74
2018-04-01T15:53:07.778Z,53.45
2018-04-01T15:55:34.710Z,53.91
2018-04-01T15:58:01.652Z,54.10
2018-04-01T16:00:28.596Z,51.86
2018-04-01T16:02:55.582Z,52.02
2018-04-01T16:05:22.418Z,51.79
2018-04-01T16:07:49.267Z,52.24
2018-04-01T16:10:16.128Z,51.79
2018-04-01T16:12:43.001Z,53.26
2018-04-01T16:15:09.834Z,52.54
2018-04-01T16:17:36.694Z,52.51
2018-04-01T16:20:03.543Z,52.22
2018-04-01T16:22:30.486Z,52.25
2018-04-01T16:24:57.330Z,52.71
2018-04-01T16:27:24.192Z,52.78
2018-04-01T16:29:51.048Z,53.31
2018-04-01T16:32:17.890Z,53.29
2018-04-01T16:34:44.727Z,53.55
2018-04-01T16:37:11.582Z,52.99
2018-04-01T16:39:38.543Z,53.27
2018-04-01T16:42:05.275Z,54.33
2018-04-01T16:44:32.114Z,54.66
2018-04-01T16:46:59.065Z,54.52
2018-04-01T16:49:25.919Z,54.04
2018-04-01T16:51:52.859Z,54.78
2018-04-01T16:54:19.703Z,54.63
2018-04-01T16:56:46.686Z,54.77
2018-04-01T16:59:13.522Z,54.83
2018-04-01T17:01:40.374Z,55.29
2018-04-01T17:04:07.214Z,53.66
2018-04-01T17:06:34.067Z,53.73
2018-04-01T17:09:00.965Z,53.90
2018-04-01T17:11:27.822Z,54.04
2018-04-01T17:13:54.751Z,55.06
2018-04-01T17:16:21.607Z,54.69
2018-04-01T17:18:48.450Z,54.49
2018-04-01T17:21:15.300Z,54.67
2018-04-01T17:23:42.222Z,55.16
2018-04-01T17:26:09.070Z,53.97
2018-04-01T17:28:35.939Z,54.66
2018-04-01T17:31:02.790Z,55.20
2018-04-01T17:33:29.763Z,55.46
2018-04-01T17:35:56.611Z,55.92
2018-04-01T17:38:23.454Z,55.52
2018-04-01T17:40:50.539Z,56.36
2018-04-01T17:43:17.460Z,56.19
2018-04-01T17:45:44.339Z,56.04
2018-04-01T17:48:11.195Z,57.02
2018-04-01T17:50:38.123Z,55.95
2018-04-01T17:53:05.085Z,56.11
2018-04-01T17:55:31.962Z,56.88
2018-04-01T17:57:58.826Z,56.30
2018-04-01T18:00:25.683Z,56.37
2018-04-01T18:02:52.650Z,57.11
2018-04-01T18:05:19.506Z,56.94
2018-04-01T18:07:46.378Z,57.00
2018-04-01T18:10:13.224Z,57.24
2018-04-01T18:12:40.114Z,57.52
2018-04-01T18:15:06.976Z,58.50
2018-04-01T18:17:33.836Z,58.91
2018-04-01T18:20:00.747Z,59.10
2018-04-01T18:22:27.601Z,59.20
2018-04-01T18:24:54.454Z,59.23
2018-04-01T18:27:21.373Z,59.74
2018-04-01T18:29:48.450Z,59.60
2018-04-01T18:32:15.314Z,59.85
2018-04-01T18:34:42.216Z,60.26
2018-04-01T18:37:09.155Z,61.03
2018-04-01T18:39:36.098Z,61.51
2018-04-01T18:42:03.046Z,61.85
2018-04-01T18:44:29.964Z,61.82
2018-04-01T18:46:56.818Z,61.88
2018-04-01T18:49:23.666Z,61.97
2018-04-01T18:51:50.527Z,62.72
2018-04-01T18:54:17.460Z,62.14
2018-04-01T18:56:44.394Z,62.72
2018-04-01T18:59:11.255Z,62.31
2018-04-01T19:01:38.182Z,62.58
2018-04-01T19:04:05.030Z,62.64
2018-04-01T19:06:31.883Z,62.60
2018-04-01T19:08:58.819Z,62.93
2018-04-01T19:11:25.663Z,63.58
2018-04-01T19:13:52.570Z,64.17
2018-04-01T19:16:19.978Z,64.07
2018-04-01T19:18:47.414Z,64.31
2018-04-01T19:21:14.870Z,65.01
2018-04-01T19:23:42.268Z,64.56
2018-04-01T19:26:09.654Z,64.98
2018-04-01T19:28:37.102Z,65.20
2018-04-01T19:31:04.510Z,64.72
2018-04-01T19:33:31.911Z,64.98
2018-04-01T19:35:59.298Z,65.75
2018-04-01T19:38:26.694Z,65.78
2018-04-01T19:40:54.087Z,65.95
2018-04-01T19:43:21.490Z,66.86
2018-04-01T19:45:48.875Z,67.07
2018-04-01T19:48:16.332Z,67.50
2018-04-01T19:50:43.741Z,67.38
2018-04-01T19:53:11.128Z,67.57
2018-04-01T19:55:38.524Z,67.79
2018-04-01T19:58:05.920Z,67.76
2018-04-01T20:00:33.338Z,68.81
2018-04-01T20:03:00.733Z,68.59
2018-04-01T20:05:28.138Z,69.88
2018-04-01T20:07:55.597Z,70.08
2018-04-01T20:10:22.986Z,70.16
2018-04-01T20:12:50.408Z,70.18
2018-04-01T20:15:17.789Z,70.25
2018-04-01T20:17:45.203Z,70.27
2018-04-01T20:20:12.601Z,70.05
2018-04-01T20:22:40.011Z,70.41
2018-04-01T20:25:07.407Z,70.47
2018-04-01T20:27:34.870Z,71.48
2018-04-01T20:30:02.260Z,71.66
2018-04-01T20:32:29.731Z,71.69
2018-04-01T20:34:57.155Z,72.40
2018-04-01T20:37:24.547Z,71.95
2018-04-01T20:39:52.003Z,72.18
2018-04-01T20:42:19.386Z,72.18
2018-04-01T20:44:46.814Z,72.18
2018-04-01T20:47:14.207Z,72.34
2018-04-01T20:49:41.603Z,72.15
2018-04-01T20:52:09.075Z,72.09
2018-04-01T20:54:37.139Z,72.29
2018-04-01T20:57:04.512Z,72.99
2018-04-01T20:59:31.911Z,72.75
2018-04-01T21:01:59.306Z,73.46
2018-04-01T21:04:26.699Z,73.17
2018-04-01T21:06:54.118Z,73.69
2018-04-01T21:09:21.526Z,73.44
2018-04-01T21:11:48.924Z,73.72
2018-04-01T21:14:16.324Z,73.90
2018-04-01T21:16:43.739Z,73.57
2018-04-01T21:19:11.204Z,73.35
2018-04-01T21:21:38.590Z,73.31
2018-04-01T21:24:06.002Z,73.19
2018-04-01T21:26:33.468Z,73.40
2018-04-01T21:29:00.895Z,72.63
2018-04-01T21:31:28.284Z,72.37
2018-04-01T21:33:55.682Z,72.05
2018-04-01T21:36:23.155Z,72.44
2018-04-01T21:38:50.552Z,73.08
2018-04-01T21:41:17.938Z,74.06
2018-04-01T21:43:45.342Z,73.85
2018-04-01T21:46:12.748Z,73.63
2018-04-01T21:48:40.159Z,72.85
2018-04-01T21:51:07.550Z,72.71
2018-04-01T21:53:34.953Z,73.36
2018-04-01T21:56:02.351Z,73.76
2018-04-01T21:58:29.774Z,73.33
2018-04-01T22:00:57.170Z,74.51
2018-04-01T22:03:24.579Z,74.21
2018-04-01T22:05:51.962Z,74.01
2018-04-01T22:08:19.363Z,73.65
2018-04-01T22:10:46.786Z,74.93
2018-04-01T22:13:14.178Z,75.64
2018-04-01T22:15:41.599Z,75.75
2018-04-01T22:18:09.431Z,75.06
2018-04-01T22:20:36.932Z,75.61
2018-04-01T22:23:17.475Z,75.43
2018-04-01T22:25:44.876Z,75.93
2018-04-01T22:28:12.286Z,75.82
2018-04-01T22:30:39.683Z,75.76
2018-04-01T22:33:07.164Z,75.83
2018-04-01T22:35:34.619Z,75.87
2018-04-01T22:38:02.067Z,75.56
2018-04-01T22:40:29.462Z,76.77
2018-04-01T22:42:56.879Z,77.70
2018-04-01T22:45:24.281Z,78.59
2018-04-01T22:47:51.670Z,78.40
2018-04-01T22:50:19.086Z,77.95
2018-04-01T22:52:46.488Z,78.36
2018-04-01T22:55:13.894Z,78.26
2018-04-01T22:57:41.294Z,78.07
2018-04-01T23:00:08.695Z,78.44
2018-04-01T23:02:36.120Z,78.47
2018-04-01T23:05:03.513Z,78.62
2018-04-01T23:07:30.898Z,77.78
2018-04-01T23:09:58.297Z,78.50
2018-04-01T23:12:25.697Z,77.93
2018-04-01T23:14:53.108Z,77.53
2018-04-01T23:17:20.499Z,78.29
2018-04-01T23:19:48.003Z,78.81
2018-04-01T23:22:15.390Z,78.66
2018-04-01T23:24:42.782Z,79.12
2018-04-01T23:27:10.183Z,79.47
2018-04-01T23:29:37.626Z,79.58
2018-04-01T23:32:05.087Z,79.54
2018-04-01T23:34:32.535Z,79.04
2018-04-01T23:37:00.854Z,78.77
2018-04-01T23:39:28.270Z,78.55
2018-04-01T23:41:55.667Z,78.66
2018-04-01T23:44:23.058Z,78.85
2018-04-01T23:46:50.442Z,78.88
2018-04-01T23:49:17.882Z,78.92
2018-04-01T23:51:45.275Z,78.37
2018-04-01T23:54:12.679Z,78.76
2018-04-01T23:56:40.153Z,78.33
2018-04-01T23:59:08.315Z,78.54
